sensor_id;sensor_type;location;lat;lon;timestamp;P1;durP1;ratioP1;P2;durP2;ratioP2
47259;SDS011;32999;52.412;4.890;2022-11-14T00:05:41;14.40;;;9.90;;
47259;SDS011;32999;52.412;4.890;2022-11-14T00:29:52;20.23;;;10.77;;
47259;SDS011;32999;52.412;4.890;2022-11-14T00:35:42;20.05;;;11.23;;
47259;SDS011;32999;52.412;4.890;2022-11-14T09:33:52;20.65;;;10.57;;
47259;SDS011;32999;52.412;4.890;2022-11-14T10:15:22;19.70;;;10.15;;
47259;SDS011;32999;52.412;4.890;2022-11-14T10:20:32;21.00;;;10.68;;
47259;SDS011;32999;52.412;4.890;2022-11-14T10:26:04;17.65;;;10.65;;
47259;SDS011;32999;52.412;4.890;2022-11-14T10:49:11;15.30;;;9.70;;
47259;SDS011;32999;52.412;4.890;2022-11-14T10:54:18;20.27;;;11.48;;
47259;SDS011;32999;52.412;4.890;2022-11-14T11:04:57;18.60;;;10.25;;
47259;SDS011;32999;52.412;4.890;2022-11-14T11:10:18;17.80;;;9.65;;
47259;SDS011;32999;52.412;4.890;2022-11-14T11:15:39;16.48;;;9.48;;
47259;SDS011;32999;52.412;4.890;2022-11-14T11:20:43;17.33;;;10.07;;
47259;SDS011;32999;52.412;4.890;2022-11-14T11:26:03;15.77;;;9.77;;
47259;SDS011;32999;52.412;4.890;2022-11-14T11:31:09;18.50;;;10.10;;
47259;SDS011;32999;52.412;4.890;2022-11-14T11:36:16;19.13;;;9.85;;
47259;SDS011;32999;52.412;4.890;2022-11-14T11:41:22;14.40;;;9.38;;
47259;SDS011;32999;52.412;4.890;2022-11-14T11:46:28;18.65;;;9.48;;
47259;SDS011;32999;52.412;4.890;2022-11-14T11:51:38;16.08;;;8.65;;
47259;SDS011;32999;52.412;4.890;2022-11-14T11:56:42;14.95;;;10.13;;
47259;SDS011;32999;52.412;4.890;2022-11-14T12:01:46;15.77;;;9.68;;
47259;SDS011;32999;52.412;4.890;2022-11-14T12:06:53;16.85;;;9.95;;
47259;SDS011;32999;52.412;4.890;2022-11-14T12:11:59;14.70;;;9.63;;
47259;SDS011;32999;52.412;4.890;2022-11-14T12:17:12;15.93;;;8.82;;
47259;SDS011;32999;52.412;4.890;2022-11-14T12:28:19;15.27;;;9.30;;
47259;SDS011;32999;52.412;4.890;2022-11-14T12:33:46;17.85;;;8.77;;
47259;SDS011;32999;52.412;4.890;2022-11-14T12:39:04;16.10;;;9.93;;
47259;SDS011;32999;52.412;4.890;2022-11-14T12:49:37;15.15;;;9.57;;
47259;SDS011;32999;52.412;4.890;2022-11-14T12:54:58;15.15;;;8.88;;
47259;SDS011;32999;52.412;4.890;2022-11-14T13:00:02;15.48;;;8.18;;
47259;SDS011;32999;52.412;4.890;2022-11-14T13:10:38;15.00;;;8.88;;
47259;SDS011;32999;52.412;4.890;2022-11-14T13:15:48;14.00;;;8.32;;
47259;SDS011;32999;52.412;4.890;2022-11-14T13:21:16;15.55;;;8.10;;
47259;SDS011;32999;52.412;4.890;2022-11-14T13:26:43;15.45;;;8.38;;
47259;SDS011;32999;52.412;4.890;2022-11-14T13:31:49;16.40;;;8.73;;
47259;SDS011;32999;52.412;4.890;2022-11-14T13:36:52;14.20;;;9.40;;
47259;SDS011;32999;52.412;4.890;2022-11-14T13:42:08;14.98;;;9.93;;
47259;SDS011;32999;52.412;4.890;2022-11-14T13:47:34;16.00;;;8.88;;
47259;SDS011;32999;52.412;4.890;2022-11-14T13:52:59;15.23;;;9.90;;
47259;SDS011;32999;52.412;4.890;2022-11-14T13:58:33;15.18;;;10.15;;
47259;SDS011;32999;52.412;4.890;2022-11-14T14:03:54;19.17;;;10.20;;
47259;SDS011;32999;52.412;4.890;2022-11-14T14:09:27;16.02;;;10.43;;
47259;SDS011;32999;52.412;4.890;2022-11-14T14:15:24;18.10;;;11.35;;
47259;SDS011;32999;52.412;4.890;2022-11-14T14:20:43;17.50;;;10.50;;
47259;SDS011;32999;52.412;4.890;2022-11-14T14:26:06;17.00;;;10.43;;
47259;SDS011;32999;52.412;4.890;2022-11-14T14:31:33;18.40;;;12.32;;
47259;SDS011;32999;52.412;4.890;2022-11-14T14:36:37;28.90;;;14.38;;
47259;SDS011;32999;52.412;4.890;2022-11-14T14:41:50;23.98;;;15.40;;
47259;SDS011;32999;52.412;4.890;2022-11-14T14:46:56;28.52;;;18.38;;
47259;SDS011;32999;52.412;4.890;2022-11-14T14:51:58;26.98;;;18.90;;
47259;SDS011;32999;52.412;4.890;2022-11-14T14:57:00;30.60;;;19.08;;
47259;SDS011;32999;52.412;4.890;2022-11-14T15:02:07;29.75;;;20.10;;
47259;SDS011;32999;52.412;4.890;2022-11-14T15:07:17;29.27;;;18.95;;
47259;SDS011;32999;52.412;4.890;2022-11-14T15:12:21;27.58;;;17.88;;
47259;SDS011;32999;52.412;4.890;2022-11-14T15:17:29;27.35;;;16.92;;
47259;SDS011;32999;52.412;4.890;2022-11-14T15:22:40;28.70;;;17.60;;
47259;SDS011;32999;52.412;4.890;2022-11-14T15:28:18;28.13;;;15.88;;
47259;SDS011;32999;52.412;4.890;2022-11-14T15:40:24;22.85;;;14.35;;
47259;SDS011;32999;52.412;4.890;2022-11-14T15:45:37;28.45;;;16.08;;
47259;SDS011;32999;52.412;4.890;2022-11-14T16:08:30;30.75;;;18.75;;
47259;SDS011;32999;52.412;4.890;2022-11-14T16:14:18;32.55;;;18.95;;
47259;SDS011;32999;52.412;4.890;2022-11-14T16:25:35;31.92;;;18.58;;
47259;SDS011;32999;52.412;4.890;2022-11-14T17:06:42;40.03;;;21.40;;
47259;SDS011;32999;52.412;4.890;2022-11-14T17:18:04;39.10;;;21.60;;
47259;SDS011;32999;52.412;4.890;2022-11-14T17:23:38;42.22;;;21.30;;
47259;SDS011;32999;52.412;4.890;2022-11-14T17:28:43;39.75;;;21.65;;
47259;SDS011;32999;52.412;4.890;2022-11-14T17:34:10;40.25;;;21.20;;
47259;SDS011;32999;52.412;4.890;2022-11-14T17:45:00;39.10;;;19.98;;
47259;SDS011;32999;52.412;4.890;2022-11-14T17:50:13;33.83;;;19.67;;
47259;SDS011;32999;52.412;4.890;2022-11-14T17:55:56;31.10;;;18.07;;
47259;SDS011;32999;52.412;4.890;2022-11-14T18:25:29;37.50;;;18.65;;
47259;SDS011;32999;52.412;4.890;2022-11-14T19:01:29;28.90;;;17.35;;
47259;SDS011;32999;52.412;4.890;2022-11-14T19:19:08;30.02;;;15.75;;
47259;SDS011;32999;52.412;4.890;2022-11-14T19:35:50;30.83;;;17.35;;
47259;SDS011;32999;52.412;4.890;2022-11-14T19:41:11;29.38;;;16.55;;
47259;SDS011;32999;52.412;4.890;2022-11-14T19:46:43;27.45;;;15.57;;
47259;SDS011;32999;52.412;4.890;2022-11-14T19:52:03;24.65;;;14.82;;
47259;SDS011;32999;52.412;4.890;2022-11-14T20:03:49;26.77;;;13.93;;
47259;SDS011;32999;52.412;4.890;2022-11-14T20:08:56;22.98;;;13.65;;
47259;SDS011;32999;52.412;4.890;2022-11-14T20:14:01;24.15;;;14.02;;
47259;SDS011;32999;52.412;4.890;2022-11-14T20:54:19;22.65;;;14.25;;
47259;SDS011;32999;52.412;4.890;2022-11-14T21:06:17;25.08;;;15.75;;
47259;SDS011;32999;52.412;4.890;2022-11-14T21:11:46;28.48;;;16.25;;
47259;SDS011;32999;52.412;4.890;2022-11-14T21:16:54;29.48;;;17.65;;
47259;SDS011;32999;52.412;4.890;2022-11-14T21:22:41;26.23;;;15.85;;
47259;SDS011;32999;52.412;4.890;2022-11-14T21:39:49;27.98;;;17.02;;
47259;SDS011;32999;52.412;4.890;2022-11-14T22:03:21;35.08;;;17.77;;
47259;SDS011;32999;52.412;4.890;2022-11-14T22:08:41;30.85;;;16.98;;
47259;SDS011;32999;52.412;4.890;2022-11-14T22:13:45;30.35;;;17.73;;
47259;SDS011;32999;52.412;4.890;2022-11-14T22:19:00;28.08;;;15.82;;
47259;SDS011;32999;52.412;4.890;2022-11-14T22:24:03;27.00;;;15.93;;
47259;SDS011;32999;52.412;4.890;2022-11-14T22:29:05;27.25;;;15.82;;
47259;SDS011;32999;52.412;4.890;2022-11-14T22:46:09;31.30;;;16.55;;
47259;SDS011;32999;52.412;4.890;2022-11-14T23:33:31;40.05;;;19.13;;
